Time;durP1;ratioP1;P1;durP2;ratioP2;P2;SDS_P1;SDS_P2;PMS_P1;PMS_P2;Temp;Humidity;BMP_temperature;BMP_pressure;BME280_temperature;BME280_humidity;BME280_pressure;Samples;Min_cycle;Max_cycle;Signal;HPM_P1;HPM_P2
2021/09/26 00:00:22;;;;;;;9.40;6.73;;;;;;;;;;5018783;28;20432;-79
2021/09/26 00:02:47;;;;;;;9.83;6.70;;;;;;;;;;5052580;28;20411;-77
2021/09/26 00:05:14;;;;;;;8.10;6.30;;;;;;;;;;5053003;28;20427;-79
2021/09/26 00:07:40;;;;;;;7.00;6.13;;;;;;;;;;5052996;28;20419;-79
2021/09/26 00:10:08;;;;;;;8.47;6.63;;;;;;;;;;5034767;28;20424;-80
2021/09/26 00:12:34;;;;;;;6.93;6.30;;;;;;;;;;5052330;28;20807;-79
2021/09/26 00:15:00;;;;;;;7.60;6.80;;;;;;;;;;5052886;28;20408;-79
2021/09/26 00:17:26;;;;;;;8.93;5.50;;;;;;;;;;5052857;28;20404;-79
2021/09/26 00:19:53;;;;;;;13.43;6.53;;;;;;;;;;5052967;28;20411;-79
2021/09/26 00:22:19;;;;;;;6.17;5.50;;;;;;;;;;5052351;28;20410;-79
2021/09/26 00:24:45;;;;;;;7.60;5.93;;;;;;;;;;5034898;28;20390;-79
2021/09/26 00:27:12;;;;;;;8.00;5.47;;;;;;;;;;5052577;28;20915;-79
2021/09/26 00:29:38;;;;;;;19.47;5.90;;;;;;;;;;5052807;28;20423;-79
2021/09/26 00:32:07;;;;;;;8.40;5.97;;;;;;;;;;5052269;28;20589;-80
2021/09/26 00:34:33;;;;;;;7.80;5.47;;;;;;;;;;5052854;28;20416;-79
2021/09/26 00:36:59;;;;;;;5.80;5.20;;;;;;;;;;5052828;28;20463;-79
2021/09/26 00:39:25;;;;;;;6.80;6.07;;;;;;;;;;5052733;28;20795;-79
2021/09/26 00:41:51;;;;;;;7.13;5.97;;;;;;;;;;5034741;28;20414;-79
2021/09/26 00:44:17;;;;;;;5.93;4.80;;;;;;;;;;5052595;28;20387;-79
2021/09/26 00:46:43;;;;;;;5.80;5.20;;;;;;;;;;5052549;28;20451;-79
2021/09/26 00:49:10;;;;;;;7.07;5.90;;;;;;;;;;5052562;28;20412;-79
2021/09/26 00:51:36;;;;;;;6.80;5.60;;;;;;;;;;5034272;28;20442;-78
2021/09/26 00:54:02;;;;;;;9.40;5.20;;;;;;;;;;5018230;28;20476;-80
2021/09/26 00:56:30;;;;;;;9.10;5.97;;;;;;;;;;5053474;28;20413;-79
2021/09/26 00:58:56;;;;;;;6.47;5.50;;;;;;;;;;5038371;28;20420;-79
2021/09/26 01:01:22;;;;;;;7.27;5.73;;;;;;;;;;5055800;28;20548;-79
2021/09/26 01:03:48;;;;;;;7.93;5.93;;;;;;;;;;5038255;28;20406;-79
2021/09/26 01:06:33;;;;;;;12.77;6.17;;;;;;;;;;5056137;28;20446;-79
2021/09/26 01:09:12;;;;;;;6.70;4.90;;;;;;;;;;5055951;28;20457;-79
2021/09/26 01:11:43;;;;;;;9.17;5.60;;;;;;;;;;5055699;28;20790;-80
2021/09/26 01:14:17;;;;;;;5.67;5.13;;;;;;;;;;5055861;28;20740;-79
2021/09/26 01:16:56;;;;;;;10.13;5.80;;;;;;;;;;5055730;28;20447;-79
2021/09/26 01:19:41;;;;;;;7.10;4.80;;;;;;;;;;5055888;28;20404;-79
2021/09/26 01:22:27;;;;;;;5.93;5.33;;;;;;;;;;5055441;28;20799;-80
2021/09/26 01:24:53;;;;;;;7.30;5.67;;;;;;;;;;5055634;28;20474;-79
2021/09/26 01:27:25;;;;;;;6.00;5.40;;;;;;;;;;5058206;28;20415;-79
2021/09/26 01:29:51;;;;;;;6.60;5.80;;;;;;;;;;5055889;28;20484;-80
2021/09/26 01:32:17;;;;;;;12.33;5.70;;;;;;;;;;5055410;28;20858;-79
2021/09/26 01:34:48;;;;;;;6.47;5.77;;;;;;;;;;5037970;28;20390;-79
2021/09/26 01:37:19;;;;;;;9.60;5.87;;;;;;;;;;5055563;28;20468;-79
2021/09/26 01:39:47;;;;;;;9.23;6.07;;;;;;;;;;5055436;28;20418;-78
2021/09/26 01:42:16;;;;;;;6.73;6.13;;;;;;;;;;5055143;28;20403;-79
2021/09/26 01:44:48;;;;;;;7.20;5.30;;;;;;;;;;5055560;28;20897;-79
2021/09/26 01:47:15;;;;;;;7.80;5.70;;;;;;;;;;5055541;28;20395;-79
2021/09/26 01:49:45;;;;;;;6.43;5.20;;;;;;;;;;5055544;28;20502;-79
2021/09/26 01:52:15;;;;;;;6.93;6.20;;;;;;;;;;5054760;28;20438;-79
2021/09/26 01:54:42;;;;;;;5.40;4.90;;;;;;;;;;5055404;28;20391;-79
2021/09/26 01:57:08;;;;;;;11.73;5.30;;;;;;;;;;5055090;28;20381;-79
2021/09/26 01:59:35;;;;;;;6.20;5.60;;;;;;;;;;5055362;28;20395;-79
2021/09/26 02:02:01;;;;;;;6.53;5.47;;;;;;;;;;5054561;28;20918;-80
2021/09/26 02:04:27;;;;;;;8.93;5.60;;;;;;;;;;5054995;28;20412;-80
2021/09/26 02:06:54;;;;;;;7.00;6.20;;;;;;;;;;5054819;28;20391;-79
2021/09/26 02:09:20;;;;;;;6.40;5.50;;;;;;;;;;5054069;28;20408;-79
2021/09/26 02:11:47;;;;;;;9.80;6.27;;;;;;;;;;5054395;28;20463;-79
2021/09/26 02:14:13;;;;;;;8.83;6.40;;;;;;;;;;5054822;28;20416;-79
2021/09/26 02:16:40;;;;;;;8.50;6.00;;;;;;;;;;5054742;28;20467;-79
2021/09/26 02:19:06;;;;;;;9.27;5.80;;;;;;;;;;5036785;28;20425;-80
2021/09/26 02:21:32;;;;;;;6.47;5.67;;;;;;;;;;5054367;28;20443;-80
2021/09/26 02:23:59;;;;;;;7.03;5.60;;;;;;;;;;5037030;28;20465;-79
2021/09/26 02:26:25;;;;;;;7.70;5.20;;;;;;;;;;5054632;28;20414;-79
2021/09/26 02:28:52;;;;;;;7.13;6.20;;;;;;;;;;5054607;28;20412;-79
2021/09/26 02:31:18;;;;;;;7.63;6.10;;;;;;;;;;5053935;28;20467;-79
2021/09/26 02:33:45;;;;;;;5.70;5.17;;;;;;;;;;5036757;28;20391;-79
2021/09/26 02:36:12;;;;;;;9.13;5.97;;;;;;;;;;5054476;28;20462;-80
2021/09/26 02:38:38;;;;;;;6.47;5.37;;;;;;;;;;5054359;28;20852;-79
2021/09/26 02:41:11;;;;;;;10.17;5.87;;;;;;;;;;5054173;28;20463;-80
2021/09/26 02:43:53;;;;;;;6.27;5.60;;;;;;;;;;5036383;28;20430;-79
2021/09/26 02:46:23;;;;;;;6.90;5.60;;;;;;;;;;5054369;28;20386;-79
2021/09/26 02:48:49;;;;;;;6.70;5.53;;;;;;;;;;5054196;28;20375;-79
2021/09/26 02:51:15;;;;;;;6.73;6.00;;;;;;;;;;5035921;28;20449;-79
2021/09/26 02:53:42;;;;;;;6.37;5.63;;;;;;;;;;5053905;28;20859;-79
2021/09/26 02:56:08;;;;;;;7.07;6.03;;;;;;;;;;5036136;28;20864;-79
2021/09/26 02:58:37;;;;;;;7.07;6.00;;;;;;;;;;5053974;28;20412;-79
2021/09/26 03:01:03;;;;;;;6.10;5.50;;;;;;;;;;5053519;28;20420;-79
2021/09/26 03:03:29;;;;;;;6.37;5.70;;;;;;;;;;5053629;28;20438;-80
2021/09/26 03:05:56;;;;;;;8.17;6.40;;;;;;;;;;5035878;28;20412;-79
2021/09/26 03:08:23;;;;;;;7.27;5.60;;;;;;;;;;5053820;28;20401;-79
2021/09/26 03:10:50;;;;;;;9.73;6.30;;;;;;;;;;5053649;28;20624;-80
2021/09/26 03:13:17;;;;;;;7.93;5.80;;;;;;;;;;5053325;28;20409;-80
2021/09/26 03:15:43;;;;;;;11.10;6.17;;;;;;;;;;5053426;28;20408;-79
2021/09/26 03:18:09;;;;;;;9.50;6.83;;;;;;;;;;5053623;28;20379;-79
2021/09/26 03:20:35;;;;;;;7.70;6.90;;;;;;;;;;5053562;28;20759;-80
2021/09/26 03:23:01;;;;;;;12.80;7.97;;;;;;;;;;5053232;28;20438;-78
2021/09/26 03:25:27;;;;;;;13.57;8.63;;;;;;;;;;5053525;28;20391;-78
2021/09/26 03:27:53;;;;;;;11.77;8.07;;;;;;;;;;5053623;28;20412;-78
2021/09/26 03:30:19;;;;;;;12.53;9.27;;;;;;;;;;5053525;28;20389;-78
2021/09/26 03:32:45;;;;;;;14.70;9.63;;;;;;;;;;5053196;28;20403;-78
2021/09/26 03:35:12;;;;;;;14.17;10.07;;;;;;;;;;5053525;28;20404;-78
2021/09/26 03:37:38;;;;;;;14.47;10.67;;;;;;;;;;5053399;28;20412;-79
2021/09/26 03:40:05;;;;;;;13.17;9.97;;;;;;;;;;5035637;28;20415;-78
2021/09/26 03:42:31;;;;;;;12.23;10.10;;;;;;;;;;5053000;28;20462;-78
2021/09/26 03:44:57;;;;;;;13.00;10.37;;;;;;;;;;5053229;28;20455;-78
2021/09/26 03:47:23;;;;;;;11.30;10.20;;;;;;;;;;5053234;28;20439;-78
2021/09/26 03:49:49;;;;;;;16.57;10.70;;;;;;;;;;5053268;28;20453;-78
2021/09/26 03:52:15;;;;;;;11.90;10.60;;;;;;;;;;5034935;28;20449;-78
2021/09/26 03:54:41;;;;;;;10.80;9.67;;;;;;;;;;5035508;28;20990;-78
2021/09/26 03:57:08;;;;;;;14.13;10.30;;;;;;;;;;5053195;28;20408;-78
2021/09/26 03:59:34;;;;;;;14.97;10.80;;;;;;;;;;5053135;28;20423;-77
2021/09/26 04:02:00;;;;;;;13.80;11.13;;;;;;;;;;5052518;28;20427;-78
2021/09/26 04:04:26;;;;;;;16.10;10.50;;;;;;;;;;5053070;28;20442;-78
2021/09/26 04:06:52;;;;;;;12.67;11.37;;;;;;;;;;5035197;28;20956;-78
2021/09/26 04:09:18;;;;;;;12.17;10.87;;;;;;;;;;5053045;28;20502;-78
2021/09/26 04:11:44;;;;;;;13.63;11.13;;;;;;;;;;5052481;28;20472;-77
2021/09/26 04:14:11;;;;;;;13.73;11.63;;;;;;;;;;5052819;28;20409;-79
2021/09/26 04:16:37;;;;;;;13.53;11.13;;;;;;;;;;5052882;28;20412;-78
2021/09/26 04:19:03;;;;;;;14.10;11.70;;;;;;;;;;5052936;28;20777;-78
2021/09/26 04:21:29;;;;;;;12.37;11.07;;;;;;;;;;5034980;28;20448;-78
2021/09/26 04:23:55;;;;;;;14.60;10.30;;;;;;;;;;5052972;28;20502;-78
2021/09/26 04:26:22;;;;;;;12.30;11.10;;;;;;;;;;5052736;28;20748;-78
2021/09/26 04:28:48;;;;;;;12.60;11.37;;;;;;;;;;5052887;28;20467;-78
2021/09/26 04:31:14;;;;;;;18.07;11.13;;;;;;;;;;5052925;28;20877;-78
2021/09/26 04:33:40;;;;;;;12.30;11.00;;;;;;;;;;5056800;28;20386;-78
2021/09/26 04:36:06;;;;;;;14.90;11.60;;;;;;;;;;5056630;28;20473;-79
2021/09/26 04:38:32;;;;;;;13.57;12.17;;;;;;;;;;5056680;28;20408;-78
2021/09/26 04:40:59;;;;;;;11.60;10.50;;;;;;;;;;5056836;28;20434;-78
2021/09/26 04:43:25;;;;;;;12.37;11.10;;;;;;;;;;5056448;28;20485;-78
2021/09/26 04:45:51;;;;;;;18.17;11.20;;;;;;;;;;5056846;28;20760;-78
2021/09/26 04:48:17;;;;;;;15.77;11.70;;;;;;;;;;5056520;28;20383;-78
2021/09/26 04:50:43;;;;;;;18.40;10.80;;;;;;;;;;5056403;28;20459;-78
2021/09/26 04:53:10;;;;;;;12.13;10.43;;;;;;;;;;5038175;28;20459;-78
2021/09/26 04:55:36;;;;;;;14.40;12.13;;;;;;;;;;5056503;28;20399;-78
2021/09/26 04:58:05;;;;;;;13.30;11.90;;;;;;;;;;5056385;28;20629;-78
2021/09/26 05:00:32;;;;;;;12.17;10.80;;;;;;;;;;5056204;28;20412;-78
2021/09/26 05:02:58;;;;;;;14.50;12.93;;;;;;;;;;5055806;28;20431;-78
2021/09/26 05:05:24;;;;;;;16.63;11.83;;;;;;;;;;5056281;28;20890;-78
2021/09/26 05:07:50;;;;;;;13.23;11.43;;;;;;;;;;5056268;28;20452;-78
2021/09/26 05:10:16;;;;;;;15.63;12.00;;;;;;;;;;5056064;28;20810;-78
2021/09/26 05:12:42;;;;;;;14.27;11.10;;;;;;;;;;5037915;28;20443;-78
2021/09/26 05:15:08;;;;;;;16.90;11.57;;;;;;;;;;5055940;28;20408;-79
2021/09/26 05:17:35;;;;;;;12.73;11.43;;;;;;;;;;5055955;28;20408;-78
2021/09/26 05:20:01;;;;;;;14.10;11.27;;;;;;;;;;5055923;28;20408;-78
2021/09/26 05:22:28;;;;;;;16.60;11.80;;;;;;;;;;5037480;28;20969;-78
2021/09/26 05:24:54;;;;;;;13.53;12.13;;;;;;;;;;5055706;28;20440;-78
2021/09/26 05:27:20;;;;;;;13.67;11.70;;;;;;;;;;5055768;28;20431;-78
2021/09/26 05:29:46;;;;;;;12.47;11.17;;;;;;;;;;5055883;28;20985;-78
2021/09/26 05:32:12;;;;;;;15.60;11.50;;;;;;;;;;5055237;28;20496;-78
2021/09/26 05:34:38;;;;;;;12.07;10.83;;;;;;;;;;5055814;28;20746;-78
2021/09/26 05:37:04;;;;;;;13.53;12.20;;;;;;;;;;5038103;28;20420;-78
2021/09/26 05:39:31;;;;;;;12.93;11.63;;;;;;;;;;5055736;28;20394;-78
2021/09/26 05:42:03;;;;;;;15.27;12.77;;;;;;;;;;5055130;28;20798;-78
2021/09/26 05:44:29;;;;;;;17.63;13.30;;;;;;;;;;5020725;28;20765;-79
2021/09/26 05:46:54;;;;;;;14.60;12.43;;;;;;;;;;5055561;28;20435;-79
2021/09/26 05:49:20;;;;;;;18.37;13.30;;;;;;;;;;5055601;28;20399;-78
2021/09/26 05:51:46;;;;;;;15.80;14.00;;;;;;;;;;5054892;28;20562;-77
2021/09/26 05:54:12;;;;;;;16.40;13.33;;;;;;;;;;5055341;28;20797;-78
2021/09/26 05:56:38;;;;;;;15.10;13.50;;;;;;;;;;5055260;28;20404;-78
2021/09/26 05:59:04;;;;;;;16.83;13.63;;;;;;;;;;5037611;28;20412;-78
2021/09/26 06:01:30;;;;;;;19.67;15.10;;;;;;;;;;5054898;28;20891;-78
2021/09/26 06:03:56;;;;;;;16.43;14.60;;;;;;;;;;5037549;28;20478;-78
2021/09/26 06:06:22;;;;;;;17.20;15.00;;;;;;;;;;5055089;28;20503;-77
2021/09/26 06:08:48;;;;;;;17.00;15.20;;;;;;;;;;5054953;28;20412;-78
2021/09/26 06:11:14;;;;;;;20.13;16.17;;;;;;;;;;5054428;28;20979;-77
2021/09/26 06:13:40;;;;;;;18.10;15.07;;;;;;;;;;5054845;28;20423;-77
2021/09/26 06:16:06;;;;;;;19.00;16.20;;;;;;;;;;5054716;28;20412;-78
2021/09/26 06:18:32;;;;;;;19.27;15.43;;;;;;;;;;5054814;28;20420;-79
2021/09/26 06:20:58;;;;;;;17.90;16.00;;;;;;;;;;5054575;28;20432;-79
2021/09/26 06:23:24;;;;;;;20.33;14.90;;;;;;;;;;5054324;28;20425;-77
2021/09/26 06:25:50;;;;;;;18.50;15.77;;;;;;;;;;5054733;28;20462;-78
2021/09/26 06:28:16;;;;;;;19.97;16.00;;;;;;;;;;5037016;28;20543;-78
2021/09/26 06:30:42;;;;;;;20.67;15.30;;;;;;;;;;5054662;28;20462;-76
2021/09/26 06:33:08;;;;;;;15.57;13.97;;;;;;;;;;5036295;28;20418;-78
2021/09/26 06:35:34;;;;;;;17.77;14.80;;;;;;;;;;5053941;28;20456;-77
2021/09/26 06:38:01;;;;;;;19.47;15.37;;;;;;;;;;5054080;28;20415;-79
2021/09/26 06:40:27;;;;;;;18.43;15.70;;;;;;;;;;5054183;28;20810;-78
2021/09/26 06:42:53;;;;;;;18.07;15.07;;;;;;;;;;5053475;28;20801;-77
2021/09/26 06:45:19;;;;;;;17.13;15.30;;;;;;;;;;5054415;28;20418;-79
2021/09/26 06:47:45;;;;;;;15.80;14.23;;;;;;;;;;5054413;28;20404;-77
2021/09/26 06:50:11;;;;;;;16.20;14.57;;;;;;;;;;5035957;28;20851;-77
2021/09/26 06:52:38;;;;;;;16.23;14.57;;;;;;;;;;5035391;28;20968;-78
2021/09/26 06:55:04;;;;;;;15.40;13.67;;;;;;;;;;5035913;28;20834;-78
2021/09/26 06:57:30;;;;;;;14.43;12.93;;;;;;;;;;5054154;28;20429;-77
2021/09/26 06:59:56;;;;;;;16.57;13.50;;;;;;;;;;5054039;28;20408;-78
2021/09/26 07:02:23;;;;;;;16.23;14.30;;;;;;;;;;5053563;28;20432;-77
2021/09/26 07:04:49;;;;;;;15.30;13.80;;;;;;;;;;5019725;28;20736;-78
2021/09/26 07:07:15;;;;;;;14.17;12.80;;;;;;;;;;5053791;28;20391;-78
2021/09/26 07:09:42;;;;;;;18.10;14.00;;;;;;;;;;5035950;28;20910;-78
2021/09/26 07:12:09;;;;;;;15.77;14.23;;;;;;;;;;5053369;28;20841;-78
2021/09/26 07:14:35;;;;;;;15.90;14.30;;;;;;;;;;5053793;28;20423;-77
2021/09/26 07:17:01;;;;;;;14.53;13.00;;;;;;;;;;5053728;28;20412;-78
2021/09/26 07:19:27;;;;;;;13.53;12.23;;;;;;;;;;5053201;28;20408;-78
2021/09/26 07:21:53;;;;;;;17.03;14.23;;;;;;;;;;5052923;28;20948;-78
2021/09/26 07:24:19;;;;;;;17.40;14.07;;;;;;;;;;5053560;28;20416;-77
2021/09/26 07:26:45;;;;;;;14.87;13.33;;;;;;;;;;5053507;28;20412;-77
2021/09/26 07:29:11;;;;;;;14.53;13.13;;;;;;;;;;5054726;28;20390;-78
2021/09/26 07:31:37;;;;;;;14.90;13.33;;;;;;;;;;5035226;28;20446;-78
2021/09/26 07:34:03;;;;;;;14.80;12.93;;;;;;;;;;5053603;28;20450;-77
2021/09/26 07:36:30;;;;;;;17.33;13.70;;;;;;;;;;5053762;28;20897;-78
2021/09/26 07:38:58;;;;;;;18.53;14.93;;;;;;;;;;5053610;28;20412;-77
2021/09/26 07:41:24;;;;;;;13.93;12.57;;;;;;;;;;5053144;28;20960;-77
2021/09/26 07:43:50;;;;;;;17.37;13.73;;;;;;;;;;5053373;28;20503;-78
2021/09/26 07:46:16;;;;;;;14.60;13.20;;;;;;;;;;5053440;28;20391;-77
2021/09/26 07:48:42;;;;;;;14.53;12.13;;;;;;;;;;5035558;28;20428;-77
2021/09/26 07:51:08;;;;;;;14.00;11.63;;;;;;;;;;5052952;28;20440;-78
2021/09/26 07:53:34;;;;;;;15.33;11.87;;;;;;;;;;5053071;28;20418;-78
2021/09/26 07:56:01;;;;;;;12.30;11.00;;;;;;;;;;5053099;28;20410;-78
2021/09/26 07:58:27;;;;;;;11.13;10.13;;;;;;;;;;5053286;28;20405;-77
2021/09/26 08:00:57;;;;;;;13.07;10.67;;;;;;;;;;5035212;28;20423;-77
2021/09/26 08:03:23;;;;;;;11.43;10.17;;;;;;;;;;5052662;28;20406;-77
2021/09/26 08:05:49;;;;;;;11.43;9.50;;;;;;;;;;5052139;28;20751;-77
2021/09/26 08:08:15;;;;;;;10.07;9.13;;;;;;;;;;5052997;28;20423;-77
2021/09/26 08:10:41;;;;;;;13.93;8.77;;;;;;;;;;5052865;28;20463;-77
2021/09/26 08:13:07;;;;;;;10.70;8.83;;;;;;;;;;5034809;28;20442;-77
2021/09/26 08:15:33;;;;;;;10.23;9.23;;;;;;;;;;5052840;28;20412;-78
2021/09/26 08:17:59;;;;;;;9.53;8.63;;;;;;;;;;5052552;28;20768;-78
2021/09/26 08:20:25;;;;;;;8.97;8.07;;;;;;;;;;5034503;28;20444;-76
2021/09/26 08:22:52;;;;;;;8.63;7.83;;;;;;;;;;5050931;28;20423;-78
2021/09/26 08:25:19;;;;;;;10.67;8.43;;;;;;;;;;5018280;28;20944;-78
2021/09/26 08:27:45;;;;;;;8.67;7.87;;;;;;;;;;5052720;28;20474;-77
2021/09/26 08:30:11;;;;;;;7.40;6.80;;;;;;;;;;5034774;28;20775;-78
2021/09/26 08:32:38;;;;;;;10.33;7.30;;;;;;;;;;5052414;28;20441;-78
2021/09/26 08:35:05;;;;;;;8.20;7.40;;;;;;;;;;5052389;28;20416;-77
2021/09/26 08:37:31;;;;;;;7.13;6.43;;;;;;;;;;5051585;28;20400;-77
2021/09/26 08:39:57;;;;;;;8.23;7.37;;;;;;;;;;5052406;28;20528;-78
2021/09/26 08:42:23;;;;;;;9.23;6.93;;;;;;;;;;5052368;28;20417;-77
2021/09/26 08:44:49;;;;;;;8.87;6.50;;;;;;;;;;5052679;28;20379;-77
2021/09/26 08:47:16;;;;;;;7.30;6.27;;;;;;;;;;5052787;28;20408;-77
2021/09/26 08:49:42;;;;;;;7.00;4.60;;;;;;;;;;5052709;28;20454;-78
2021/09/26 08:52:08;;;;;;;5.00;4.50;;;;;;;;;;5051828;28;20463;-78
2021/09/26 08:54:34;;;;;;;6.17;5.20;;;;;;;;;;5035127;28;20410;-78
2021/09/26 08:57:00;;;;;;;7.30;4.70;;;;;;;;;;5052770;28;20412;-76
2021/09/26 08:59:27;;;;;;;6.43;4.50;;;;;;;;;;5052467;28;20416;-77
2021/09/26 09:01:53;;;;;;;5.17;3.83;;;;;;;;;;5052190;28;20432;-76
2021/09/26 09:04:33;;;;;;;4.87;4.20;;;;;;;;;;5052345;28;20470;-77
2021/09/26 09:07:03;;;;;;;8.47;4.50;;;;;;;;;;5052899;28;20467;-77
2021/09/26 09:09:29;;;;;;;4.63;3.77;;;;;;;;;;5054220;28;20415;-76
2021/09/26 09:12:02;;;;;;;5.33;3.37;;;;;;;;;;5052047;28;20979;-76
2021/09/26 09:14:47;;;;;;;5.70;3.23;;;;;;;;;;5052337;28;20492;-76
2021/09/26 09:17:24;;;;;;;4.77;3.70;;;;;;;;;;5053263;28;20400;-76
2021/09/26 09:20:09;;;;;;;4.77;3.47;;;;;;;;;;5056070;28;20773;-76
2021/09/26 09:22:35;;;;;;;4.43;3.70;;;;;;;;;;5055417;28;20462;-77
2021/09/26 09:25:01;;;;;;;5.50;3.20;;;;;;;;;;5055698;28;20412;-76
2021/09/26 09:27:28;;;;;;;4.80;3.30;;;;;;;;;;5055840;28;20423;-76
2021/09/26 09:29:54;;;;;;;3.20;2.90;;;;;;;;;;5055826;28;20415;-76
2021/09/26 09:32:23;;;;;;;5.10;3.20;;;;;;;;;;5055266;28;20540;-76
2021/09/26 09:34:49;;;;;;;4.57;3.20;;;;;;;;;;5055645;28;20424;-76
2021/09/26 09:37:17;;;;;;;4.80;3.00;;;;;;;;;;5055637;28;20416;-77
2021/09/26 09:40:02;;;;;;;3.00;2.70;;;;;;;;;;5055931;28;20411;-77
2021/09/26 09:42:30;;;;;;;6.70;2.50;;;;;;;;;;5055073;28;20430;-77
2021/09/26 09:44:56;;;;;;;4.17;2.80;;;;;;;;;;5055709;28;20927;-77
2021/09/26 09:47:22;;;;;;;3.17;2.87;;;;;;;;;;5055733;28;20419;-77
2021/09/26 09:49:55;;;;;;;3.97;3.23;;;;;;;;;;5055590;28;20408;-77
2021/09/26 09:52:41;;;;;;;5.50;2.93;;;;;;;;;;5054884;28;20463;-77
2021/09/26 09:55:07;;;;;;;3.37;2.40;;;;;;;;;;5037601;28;20941;-78
2021/09/26 09:57:33;;;;;;;4.97;2.70;;;;;;;;;;5055326;28;20411;-78
2021/09/26 10:00:13;;;;;;;3.87;2.80;;;;;;;;;;5055233;28;20503;-78
2021/09/26 10:02:40;;;;;;;5.20;2.50;;;;;;;;;;5054705;28;20436;-78
2021/09/26 10:05:06;;;;;;;4.10;2.73;;;;;;;;;;5055103;28;20412;-80
2021/09/26 10:07:32;;;;;;;4.10;2.20;;;;;;;;;;5055358;28;20448;-80
2021/09/26 10:09:59;;;;;;;3.00;2.70;;;;;;;;;;5055010;28;20799;-80
2021/09/26 10:12:32;;;;;;;3.63;2.40;;;;;;;;;;5053848;28;20470;-80
2021/09/26 10:15:02;;;;;;;3.17;2.50;;;;;;;;;;5054230;28;20860;-78
2021/09/26 10:17:29;;;;;;;3.93;2.30;;;;;;;;;;5054573;28;20400;-79
2021/09/26 10:19:55;;;;;;;3.27;2.40;;;;;;;;;;5054769;28;20835;-80
2021/09/26 10:22:22;;;;;;;7.00;2.50;;;;;;;;;;5036103;28;21056;-80
2021/09/26 10:24:49;;;;;;;4.90;2.50;;;;;;;;;;5036505;28;20783;-80
2021/09/26 10:27:20;;;;;;;3.10;2.33;;;;;;;;;;5054164;28;20473;-80
2021/09/26 10:29:46;;;;;;;3.37;2.60;;;;;;;;;;5035696;28;20415;-78
2021/09/26 10:32:13;;;;;;;3.43;2.63;;;;;;;;;;5053628;28;20632;-79
2021/09/26 10:34:39;;;;;;;5.17;2.57;;;;;;;;;;5054769;28;20419;-78
2021/09/26 10:37:07;;;;;;;3.27;2.30;;;;;;;;;;5039225;28;20418;-78
2021/09/26 10:39:33;;;;;;;5.80;3.00;;;;;;;;;;5036649;28;20928;-80
2021/09/26 10:42:09;;;;;;;3.40;2.43;;;;;;;;;;5054163;28;20519;-79
2021/09/26 10:44:38;;;;;;;3.43;2.37;;;;;;;;;;5054550;28;20494;-77
2021/09/26 10:47:16;;;;;;;2.50;2.30;;;;;;;;;;5054025;28;20400;-79
2021/09/26 10:49:44;;;;;;;5.10;2.47;;;;;;;;;;5054303;28;20423;-78
2021/09/26 10:52:22;;;;;;;3.67;2.43;;;;;;;;;;5053580;28;20474;-79
2021/09/26 10:54:47;;;;;;;4.33;2.30;;;;;;;;;;5054274;28;20414;-79
2021/09/26 10:57:18;;;;;;;4.50;2.80;;;;;;;;;;5054363;28;20416;-79
2021/09/26 10:59:45;;;;;;;5.70;2.80;;;;;;;;;;5054418;28;20491;-79
2021/09/26 11:02:23;;;;;;;5.53;2.57;;;;;;;;;;5035626;28;20443;-79
2021/09/26 11:04:51;;;;;;;5.13;2.17;;;;;;;;;;5054123;28;20755;-81
2021/09/26 11:07:17;;;;;;;5.47;2.53;;;;;;;;;;5036049;28;20419;-81
2021/09/26 11:09:50;;;;;;;3.40;2.30;;;;;;;;;;5054053;28;20847;-80
2021/09/26 11:12:36;;;;;;;4.87;2.60;;;;;;;;;;5053357;28;20811;-80
2021/09/26 11:15:10;;;;;;;5.13;2.83;;;;;;;;;;5053665;28;20458;-80
2021/09/26 11:17:43;;;;;;;3.83;2.53;;;;;;;;;;5053752;28;20395;-79
2021/09/26 11:20:10;;;;;;;3.40;2.43;;;;;;;;;;5053640;28;21000;-80
2021/09/26 11:22:36;;;;;;;4.33;2.63;;;;;;;;;;5053326;28;20538;-80
2021/09/26 11:25:02;;;;;;;4.20;2.50;;;;;;;;;;5053479;28;20510;-78
2021/09/26 11:27:32;;;;;;;6.80;3.30;;;;;;;;;;5053393;28;20416;-82
2021/09/26 11:30:13;;;;;;;3.50;2.50;;;;;;;;;;5053626;28;20394;-80
2021/09/26 11:32:39;;;;;;;7.33;3.60;;;;;;;;;;5052956;28;20429;-80
2021/09/26 11:35:23;;;;;;;4.10;3.17;;;;;;;;;;5053437;28;20411;-80
2021/09/26 11:37:50;;;;;;;2.73;2.37;;;;;;;;;;5052964;28;20382;-78
2021/09/26 11:40:18;;;;;;;4.50;2.43;;;;;;;;;;5016909;28;20825;-81
2021/09/26 11:42:51;;;;;;;4.97;2.30;;;;;;;;;;5051956;28;20773;-80
2021/09/26 11:45:20;;;;;;;3.50;2.50;;;;;;;;;;5035162;28;20928;-80
2021/09/26 11:47:59;;;;;;;6.77;2.47;;;;;;;;;;5053169;28;20492;-81
2021/09/26 11:50:28;;;;;;;5.83;2.70;;;;;;;;;;5035218;28;20429;-80
2021/09/26 11:52:56;;;;;;;4.90;2.57;;;;;;;;;;5052679;28;20452;-80
2021/09/26 11:55:22;;;;;;;5.70;2.40;;;;;;;;;;5053089;28;20762;-80
2021/09/26 11:57:55;;;;;;;5.50;2.47;;;;;;;;;;5052963;28;20415;-80
2021/09/26 12:00:25;;;;;;;5.23;2.60;;;;;;;;;;5053283;28;20443;-79
2021/09/26 12:02:51;;;;;;;2.93;2.10;;;;;;;;;;5052606;28;20464;-79
2021/09/26 12:05:32;;;;;;;7.73;2.40;;;;;;;;;;5053003;28;20411;-80
2021/09/26 12:07:58;;;;;;;6.17;2.70;;;;;;;;;;5052740;28;20416;-78
2021/09/26 12:10:24;;;;;;;5.20;2.73;;;;;;;;;;5053048;28;20420;-79
2021/09/26 12:12:50;;;;;;;3.30;2.27;;;;;;;;;;5052515;28;20431;-78
2021/09/26 12:15:17;;;;;;;2.80;2.20;;;;;;;;;;5051482;28;20909;-78
2021/09/26 12:17:43;;;;;;;3.00;2.53;;;;;;;;;;5018602;28;20424;-77
2021/09/26 12:20:14;;;;;;;4.50;3.30;;;;;;;;;;5052496;28;20408;-78
2021/09/26 12:22:40;;;;;;;3.13;2.83;;;;;;;;;;5052577;28;20901;-78
2021/09/26 12:25:25;;;;;;;5.90;2.53;;;;;;;;;;5052810;28;20506;-78
2021/09/26 12:27:53;;;;;;;5.20;3.03;;;;;;;;;;5034788;28;20403;-78
2021/09/26 12:30:21;;;;;;;3.13;2.83;;;;;;;;;;5052808;28;20440;-78
2021/09/26 12:32:53;;;;;;;3.33;2.03;;;;;;;;;;5052344;28;20483;-79
2021/09/26 12:35:29;;;;;;;3.30;2.20;;;;;;;;;;5052083;28;20400;-79
2021/09/26 12:37:57;;;;;;;4.30;2.90;;;;;;;;;;5052373;28;20888;-78
2021/09/26 12:40:28;;;;;;;3.90;2.80;;;;;;;;;;5052501;28;20434;-78
2021/09/26 12:42:55;;;;;;;3.23;2.50;;;;;;;;;;5052462;28;20542;-78
2021/09/26 12:45:32;;;;;;;3.50;2.50;;;;;;;;;;5052704;28;20412;-79
2021/09/26 12:47:58;;;;;;;2.63;2.43;;;;;;;;;;5052678;28;20414;-79
2021/09/26 12:50:26;;;;;;;3.60;2.60;;;;;;;;;;5052706;28;20408;-78
2021/09/26 12:52:52;;;;;;;4.27;3.03;;;;;;;;;;5053745;28;20464;-79
2021/09/26 12:55:21;;;;;;;3.23;2.90;;;;;;;;;;5056522;28;20407;-79
2021/09/26 12:57:48;;;;;;;2.63;2.30;;;;;;;;;;5056400;28;20756;-78
2021/09/26 13:00:14;;;;;;;3.17;2.83;;;;;;;;;;5022308;28;20435;-78
2021/09/26 13:02:41;;;;;;;5.30;2.97;;;;;;;;;;5056020;28;20794;-78
2021/09/26 13:05:10;;;;;;;3.10;2.37;;;;;;;;;;5055070;28;20419;-78
2021/09/26 13:07:36;;;;;;;7.47;3.17;;;;;;;;;;5053417;28;20424;-78
2021/09/26 13:10:13;;;;;;;5.00;3.07;;;;;;;;;;5054717;28;20440;-78
2021/09/26 13:12:44;;;;;;;7.60;3.40;;;;;;;;;;5053378;28;20469;-77
2021/09/26 13:15:10;;;;;;;5.50;3.20;;;;;;;;;;5036881;28;20466;-78
2021/09/26 13:17:36;;;;;;;4.90;3.03;;;;;;;;;;5054378;28;20420;-78
2021/09/26 13:20:20;;;;;;;4.20;2.70;;;;;;;;;;5036138;28;20522;-79
2021/09/26 13:22:47;;;;;;;4.57;3.33;;;;;;;;;;5053978;28;20413;-79
2021/09/26 13:25:13;;;;;;;6.10;2.80;;;;;;;;;;5054366;28;20831;-78
2021/09/26 13:27:39;;;;;;;4.67;3.13;;;;;;;;;;5053969;28;20420;-78
2021/09/26 13:30:17;;;;;;;5.77;3.47;;;;;;;;;;5054353;28;20387;-78
2021/09/26 13:32:51;;;;;;;3.50;3.20;;;;;;;;;;5054309;28;20608;-78
2021/09/26 13:35:22;;;;;;;5.17;3.53;;;;;;;;;;5053565;28;20420;-77
2021/09/26 13:38:06;;;;;;;8.67;3.57;;;;;;;;;;5054389;28;20853;-79
2021/09/26 13:40:34;;;;;;;6.73;3.57;;;;;;;;;;5053764;28;20387;-77
2021/09/26 13:43:02;;;;;;;6.27;3.83;;;;;;;;;;5053129;28;20428;-78
2021/09/26 13:45:28;;;;;;;4.53;3.33;;;;;;;;;;5035977;28;20406;-79
2021/09/26 13:47:54;;;;;;;3.60;2.90;;;;;;;;;;5054143;28;20474;-79
2021/09/26 13:50:20;;;;;;;3.23;2.93;;;;;;;;;;5052925;28;20451;-78
2021/09/26 13:52:47;;;;;;;6.30;3.70;;;;;;;;;;5053238;28;20985;-77
2021/09/26 13:55:13;;;;;;;6.83;3.70;;;;;;;;;;5035682;28;20494;-78
2021/09/26 13:57:39;;;;;;;4.20;3.33;;;;;;;;;;5053407;28;20412;-79
2021/09/26 14:00:08;;;;;;;7.77;4.00;;;;;;;;;;5035283;28;20402;-80
2021/09/26 14:02:36;;;;;;;3.83;3.30;;;;;;;;;;5053355;28;20447;-79
2021/09/26 14:05:03;;;;;;;4.07;3.77;;;;;;;;;;5051830;28;20443;-79
2021/09/26 14:07:29;;;;;;;3.90;3.50;;;;;;;;;;5053181;28;20439;-79
2021/09/26 14:09:55;;;;;;;6.37;3.80;;;;;;;;;;5052967;28;20443;-77
2021/09/26 14:12:21;;;;;;;3.30;3.00;;;;;;;;;;5056615;28;20464;-79
2021/09/26 14:14:47;;;;;;;3.70;3.40;;;;;;;;;;5053874;28;20408;-80
2021/09/26 14:17:15;;;;;;;3.90;3.50;;;;;;;;;;5054216;28;20401;-79
2021/09/26 14:19:41;;;;;;;4.23;3.83;;;;;;;;;;5052963;28;20440;-79
2021/09/26 14:22:08;;;;;;;6.40;4.07;;;;;;;;;;5053410;28;20447;-79
2021/09/26 14:24:35;;;;;;;4.03;3.67;;;;;;;;;;5052930;28;20420;-79
2021/09/26 14:27:01;;;;;;;4.33;3.70;;;;;;;;;;5052585;28;20927;-78
2021/09/26 14:29:28;;;;;;;5.60;4.00;;;;;;;;;;5052767;28;20398;-78
2021/09/26 14:31:55;;;;;;;8.00;4.70;;;;;;;;;;5052990;28;20442;-78
2021/09/26 14:34:22;;;;;;;4.27;3.83;;;;;;;;;;5052132;28;20419;-79
2021/09/26 14:36:49;;;;;;;4.43;4.00;;;;;;;;;;5035315;28;20409;-78